Time;durP1;ratioP1;P1;durP2;ratioP2;P2;SDS_P1;SDS_P2;PMS_P1;PMS_P2;Temp;Humidity;BMP_temperature;BMP_pressure;BME280_temperature;BME280_humidity;BME280_pressure;Samples;Min_cycle;Max_cycle;Signal;HPM_P1;HPM_P2
2024/03/11 00:02:04;;;;;;;7.85;2.38;;;;;;;-140.81;100.00;62400.31;5020659;28;20038;-62
2024/03/11 00:04:30;;;;;;;6.15;2.83;;;;;;;-140.81;100.00;62400.31;5006000;28;20655;-61
2024/03/11 00:06:57;;;;;;;6.13;2.60;;;;;;;-140.81;100.00;62400.31;5006645;28;20128;-61
2024/03/11 00:09:32;;;;;;;13.93;2.97;;;;;;;-140.81;100.00;62400.31;5037954;28;20204;-61
2024/03/11 00:12:00;;;;;;;15.43;4.13;;;;;;;-140.81;100.00;62400.31;5005372;28;20042;-62
2024/03/11 00:14:28;;;;;;;12.60;3.70;;;;;;;-140.81;100.00;62400.31;4988906;28;20038;-62
2024/03/11 00:16:55;;;;;;;9.10;3.67;;;;;;;-140.81;100.00;62400.31;5005893;28;20069;-61
2024/03/11 00:19:22;;;;;;;9.13;3.40;;;;;;;-140.81;100.00;62400.31;5004837;28;20034;-61
2024/03/11 00:21:53;;;;;;;10.27;3.13;;;;;;;-140.81;100.00;62400.31;5002918;28;20731;-61
2024/03/11 00:24:19;;;;;;;6.22;2.50;;;;;;;-140.81;100.00;62400.31;5003984;28;20042;-60
2024/03/11 00:26:46;;;;;;;8.32;2.67;;;;;;;-140.81;100.00;62400.31;5003468;28;20065;-60
2024/03/11 00:29:14;;;;;;;6.47;2.08;;;;;;;-140.81;100.00;62400.31;4988113;28;20040;-61
2024/03/11 00:31:40;;;;;;;4.70;2.53;;;;;;;-140.81;100.00;62400.31;5004042;28;20089;-62
2024/03/11 00:34:07;;;;;;;6.05;2.30;;;;;;;-140.81;100.00;62400.31;5002774;28;20037;-61
2024/03/11 00:36:34;;;;;;;6.95;1.90;;;;;;;-140.81;100.00;62400.31;5037326;28;20045;-61
2024/03/11 00:39:01;;;;;;;5.30;2.05;;;;;;;-140.81;100.00;62400.31;5006712;28;20034;-62
2024/03/11 00:41:28;;;;;;;6.28;1.90;;;;;;;-140.81;100.00;62400.31;5005880;28;20042;-61
2024/03/11 00:43:54;;;;;;;4.47;1.65;;;;;;;-140.81;100.00;62400.31;5006119;28;20053;-61
2024/03/11 00:46:20;;;;;;;5.28;2.10;;;;;;;-140.81;100.00;62400.31;5037167;28;20041;-61
2024/03/11 00:48:47;;;;;;;11.88;2.25;;;;;;;-140.81;100.00;62400.31;5004768;28;20434;-62
2024/03/11 00:51:15;;;;;;;9.98;2.17;;;;;;;-140.81;100.00;62400.31;5020935;28;20136;-56
2024/03/11 00:53:41;;;;;;;5.13;1.80;;;;;;;-140.81;100.00;62400.31;5004808;28;20049;-62
2024/03/11 00:56:07;;;;;;;4.47;2.42;;;;;;;-140.81;100.00;62400.31;5008157;28;20529;-63
2024/03/11 00:58:37;;;;;;;5.07;2.28;;;;;;;-140.81;100.00;62400.31;5009833;28;20041;-62
2024/03/11 01:01:05;;;;;;;6.95;2.38;;;;;;;-140.81;100.00;62400.31;5004686;28;20486;-61
2024/03/11 01:03:34;;;;;;;6.28;2.78;;;;;;;-140.81;100.00;62400.31;5001617;28;20045;-66
2024/03/11 01:06:00;;;;;;;6.03;2.03;;;;;;;-140.81;100.00;62400.31;4976226;28;20049;-62
2024/03/11 01:08:29;;;;;;;6.97;2.35;;;;;;;-140.81;100.00;62400.31;5009997;28;20040;-64
2024/03/11 01:10:56;;;;;;;5.07;2.25;;;;;;;-140.81;100.00;62400.31;5009632;28;20046;-61
2024/03/11 01:13:22;;;;;;;10.00;2.13;;;;;;;-140.81;100.00;62400.31;5009165;28;20038;-63
2024/03/11 01:15:49;;;;;;;7.13;3.03;;;;;;;-140.81;100.00;62400.31;4992941;28;20050;-61
2024/03/11 01:18:16;;;;;;;8.77;3.15;;;;;;;-140.81;100.00;62400.31;4990171;28;20065;-60
2024/03/11 01:20:43;;;;;;;7.05;3.03;;;;;;;-140.81;100.00;62400.31;5001854;28;20136;-61
2024/03/11 01:23:10;;;;;;;4.22;2.00;;;;;;;-140.81;100.00;62400.31;5007785;28;20045;-59
2024/03/11 01:25:38;;;;;;;15.57;3.40;;;;;;;-140.81;100.00;62400.31;5007938;28;20506;-61
2024/03/11 01:28:07;;;;;;;7.82;2.53;;;;;;;-140.81;100.00;62400.31;5009645;28;20120;-61
2024/03/11 01:30:35;;;;;;;8.30;2.40;;;;;;;-140.81;100.00;62400.31;5007732;28;20045;-62
2024/03/11 01:33:03;;;;;;;5.15;1.90;;;;;;;-140.81;100.00;62400.31;5007616;28;20133;-60
2024/03/11 01:35:29;;;;;;;9.88;1.83;;;;;;;-140.81;100.00;62400.31;5040033;28;20794;-60
2024/03/11 01:37:56;;;;;;;3.67;1.85;;;;;;;-140.81;100.00;62400.31;5023660;28;20568;-59
2024/03/11 01:40:22;;;;;;;8.77;2.53;;;;;;;-140.81;100.00;62400.31;5009204;28;20049;-61
2024/03/11 01:42:50;;;;;;;4.95;2.20;;;;;;;-140.81;100.00;62400.31;5007377;28;20415;-62
2024/03/11 01:45:16;;;;;;;9.55;3.45;;;;;;;-140.81;100.00;62400.31;5006933;28;20045;-60
2024/03/11 01:47:43;;;;;;;6.00;2.42;;;;;;;-140.81;100.00;62400.31;5040516;28;20065;-61
2024/03/11 01:50:10;;;;;;;9.57;2.33;;;;;;;-140.81;100.00;62400.31;5007400;28;20042;-60
2024/03/11 01:52:43;;;;;;;7.03;2.40;;;;;;;-140.81;100.00;62400.31;5007879;28;20048;-59
2024/03/11 01:55:10;;;;;;;4.40;1.88;;;;;;;-140.81;100.00;62400.31;5039240;28;20057;-59
2024/03/11 01:57:37;;;;;;;10.00;2.60;;;;;;;-140.81;100.00;62400.31;5040135;28;20037;-62
2024/03/11 02:00:08;;;;;;;6.72;1.67;;;;;;;-140.81;100.00;62400.31;5007000;28;20725;-57
2024/03/11 02:02:40;;;;;;;5.80;2.40;;;;;;;-140.81;100.00;62400.31;5009068;28;20038;-61
2024/03/11 02:05:13;;;;;;;6.15;1.98;;;;;;;-140.81;100.00;62400.31;5039458;28;20054;-61
2024/03/11 02:07:41;;;;;;;8.20;3.10;;;;;;;-140.81;100.00;62400.31;5007108;28;20800;-60
2024/03/11 02:10:13;;;;;;;8.63;1.67;;;;;;;-140.81;100.00;62400.31;5005909;28;20085;-63
2024/03/11 02:12:46;;;;;;;6.57;2.40;;;;;;;-140.81;100.00;62400.31;4988869;28;20046;-61
2024/03/11 02:15:14;;;;;;;7.18;2.28;;;;;;;-140.81;100.00;62400.31;4995685;28;20764;-59
2024/03/11 02:17:44;;;;;;;5.45;2.45;;;;;;;-140.81;100.00;62400.31;5008103;28;20092;-61
2024/03/11 02:20:17;;;;;;;7.50;2.20;;;;;;;-140.81;100.00;62400.31;4990370;28;20124;-60
2024/03/11 02:22:48;;;;;;;4.15;1.80;;;;;;;-140.81;100.00;62400.31;5005183;28;20080;-62
2024/03/11 02:25:20;;;;;;;5.53;2.85;;;;;;;-140.81;100.00;62400.31;5004794;28;20049;-63
2024/03/11 02:27:48;;;;;;;7.93;3.05;;;;;;;-140.81;100.00;62400.31;5006863;28;20037;-58
2024/03/11 02:30:15;;;;;;;5.72;2.00;;;;;;;-140.81;100.00;62400.31;5023173;28;20042;-60
2024/03/11 02:32:42;;;;;;;4.78;2.05;;;;;;;-140.81;100.00;62400.31;4988359;28;20088;-63
2024/03/11 02:35:08;;;;;;;6.43;2.30;;;;;;;-140.81;100.00;62400.31;5004763;28;20577;-61
2024/03/11 02:37:35;;;;;;;7.38;2.90;;;;;;;-140.81;100.00;62400.31;5007908;28;20045;-62
2024/03/11 02:40:06;;;;;;;5.63;2.45;;;;;;;-140.81;100.00;62400.31;5039745;28;20124;-61
2024/03/11 02:42:32;;;;;;;5.88;2.35;;;;;;;-140.81;100.00;62400.31;5008020;28;20052;-60
2024/03/11 02:44:58;;;;;;;4.25;1.42;;;;;;;-140.81;100.00;62400.31;5008101;28;20512;-61
2024/03/11 02:47:23;;;;;;;4.55;2.20;;;;;;;-140.81;100.00;62400.31;5006898;28;20049;-64
2024/03/11 02:49:50;;;;;;;6.72;2.10;;;;;;;-140.81;100.00;62400.31;5007769;28;20052;-61
2024/03/11 02:52:17;;;;;;;9.15;2.65;;;;;;;-140.81;100.00;62400.31;5006481;28;20514;-62
2024/03/11 02:54:48;;;;;;;3.80;1.60;;;;;;;-140.81;100.00;62400.31;5022689;28;20046;-61
2024/03/11 02:57:14;;;;;;;6.32;2.60;;;;;;;-140.81;100.00;62400.31;5006526;28;20041;-62
2024/03/11 02:59:40;;;;;;;4.53;1.98;;;;;;;-140.81;100.00;62400.31;5006444;28;20050;-61
2024/03/11 03:02:08;;;;;;;5.00;2.63;;;;;;;-140.81;100.00;62400.31;5005713;28;20429;-61
2024/03/11 03:04:34;;;;;;;9.15;2.85;;;;;;;-140.81;100.00;62400.31;5006050;28;20048;-61
2024/03/11 03:07:00;;;;;;;5.30;2.00;;;;;;;-140.81;100.00;62400.31;5023475;28;20045;-61
2024/03/11 03:09:27;;;;;;;6.13;2.40;;;;;;;-140.81;100.00;62400.31;4990370;28;20085;-62
2024/03/11 03:11:54;;;;;;;15.23;3.65;;;;;;;-140.81;100.00;62400.31;5039531;28;20048;-62
2024/03/11 03:14:21;;;;;;;5.97;2.60;;;;;;;-140.81;100.00;62400.31;5007298;28;20042;-61
2024/03/11 03:16:47;;;;;;;6.95;2.45;;;;;;;-140.81;100.00;62400.31;5006551;28;20136;-60
2024/03/11 03:19:15;;;;;;;4.55;1.92;;;;;;;-140.81;100.00;62400.31;5022560;28;20120;-62
2024/03/11 03:21:40;;;;;;;8.25;2.75;;;;;;;-140.81;100.00;62400.31;4998081;28;20042;-61
2024/03/11 03:24:06;;;;;;;4.95;2.33;;;;;;;-140.81;100.00;62400.31;4986159;28;20042;-61
2024/03/11 03:26:32;;;;;;;7.55;2.35;;;;;;;-140.81;100.00;62400.31;4987604;28;20580;-60
2024/03/11 03:28:59;;;;;;;5.93;2.30;;;;;;;-140.81;100.00;62400.31;5037536;28;20077;-61
2024/03/11 03:31:27;;;;;;;9.40;2.70;;;;;;;-140.81;100.00;62400.31;5006982;28;20108;-61
2024/03/11 03:33:53;;;;;;;8.48;3.08;;;;;;;-140.81;100.00;62400.31;5005158;28;20416;-61
2024/03/11 03:36:19;;;;;;;10.75;4.05;;;;;;;-140.81;100.00;62400.31;5005788;28;20535;-62
2024/03/11 03:38:45;;;;;;;8.00;3.00;;;;;;;-140.81;100.00;62400.31;5006548;28;20048;-61
2024/03/11 03:41:11;;;;;;;6.55;3.00;;;;;;;-140.81;100.00;62400.31;5022260;28;20624;-61
2024/03/11 03:43:40;;;;;;;7.83;2.73;;;;;;;-140.81;100.00;62400.31;5005804;28;20144;-62
2024/03/11 03:46:06;;;;;;;7.20;2.95;;;;;;;-140.81;100.00;62400.31;5006969;28;20376;-61
2024/03/11 03:48:33;;;;;;;9.57;2.53;;;;;;;-140.81;100.00;62400.31;5005962;28;20425;-59
2024/03/11 03:50:59;;;;;;;4.55;1.85;;;;;;;-140.81;100.00;62400.31;5006946;28;20484;-61
2024/03/11 03:53:25;;;;;;;8.05;2.15;;;;;;;-140.81;100.00;62400.31;5005108;28;20038;-61
2024/03/11 03:55:51;;;;;;;8.25;3.22;;;;;;;-140.81;100.00;62400.31;5005022;28;20103;-62
2024/03/11 03:58:19;;;;;;;5.20;2.50;;;;;;;-140.81;100.00;62400.31;4971348;28;20030;-62
2024/03/11 04:00:44;;;;;;;6.97;2.03;;;;;;;-140.81;100.00;62400.31;5006511;28;20037;-61
2024/03/11 04:03:10;;;;;;;6.78;2.33;;;;;;;-140.81;100.00;62400.31;5005946;28;20060;-62
2024/03/11 04:05:36;;;;;;;5.07;2.10;;;;;;;-140.81;100.00;62400.31;5006461;28;20041;-62
2024/03/11 04:08:02;;;;;;;5.15;2.53;;;;;;;-140.81;100.00;62400.31;5006002;28;20096;-62
2024/03/11 04:10:29;;;;;;;9.80;2.47;;;;;;;-140.81;100.00;62400.31;5004419;28;20050;-62
2024/03/11 04:12:56;;;;;;;6.45;2.65;;;;;;;-140.81;100.00;62400.31;5004840;28;20077;-62
2024/03/11 04:15:23;;;;;;;7.38;3.00;;;;;;;-140.81;100.00;62400.31;5006331;28;20531;-62
2024/03/11 04:17:56;;;;;;;6.78;2.78;;;;;;;-140.81;100.00;62400.31;5005839;28;20048;-63
2024/03/11 04:20:27;;;;;;;5.38;2.40;;;;;;;-140.81;100.00;62400.31;5004531;28;20091;-61
2024/03/11 04:22:54;;;;;;;6.18;2.92;;;;;;;-140.81;100.00;62400.31;4987226;28;20054;-62
2024/03/11 04:25:28;;;;;;;4.50;2.55;;;;;;;-140.81;100.00;62400.31;4985057;28;20104;-62
2024/03/11 04:27:55;;;;;;;5.50;2.67;;;;;;;-140.81;100.00;62400.31;4989068;28;20049;-61
2024/03/11 04:30:28;;;;;;;7.25;2.38;;;;;;;-140.81;100.00;62400.31;5006779;28;20046;-64
2024/03/11 04:32:54;;;;;;;4.28;1.83;;;;;;;-140.81;100.00;62400.31;5009751;28;20071;-62
2024/03/11 04:35:25;;;;;;;6.22;2.03;;;;;;;-140.81;100.00;62400.31;5041185;28;20068;-61
2024/03/11 04:37:55;;;;;;;5.80;2.38;;;;;;;-140.81;100.00;62400.31;5040812;28;20053;-61
2024/03/11 04:40:28;;;;;;;5.50;2.10;;;;;;;-140.81;100.00;62400.31;5007505;28;20600;-59
2024/03/11 04:42:54;;;;;;;6.93;2.42;;;;;;;-140.81;100.00;62400.31;4981907;28;20049;-58
2024/03/11 04:45:21;;;;;;;5.65;2.30;;;;;;;-140.81;100.00;62400.31;4983854;28;20136;-62
2024/03/11 04:47:48;;;;;;;4.80;1.90;;;;;;;-140.81;100.00;62400.31;4990092;28;20042;-62
2024/03/11 04:50:21;;;;;;;3.58;1.88;;;;;;;-140.81;100.00;62400.31;5008017;28;20805;-61
2024/03/11 04:52:47;;;;;;;4.68;2.10;;;;;;;-140.81;100.00;62400.31;5009895;28;20097;-68
2024/03/11 04:55:13;;;;;;;3.65;1.95;;;;;;;-140.81;100.00;62400.31;4991539;28;20411;-62
2024/03/11 04:57:39;;;;;;;10.90;2.10;;;;;;;-140.81;100.00;62400.31;5008926;28;20697;-60
2024/03/11 05:00:08;;;;;;;7.63;2.67;;;;;;;-140.81;100.00;62400.31;5003348;28;20046;-65
2024/03/11 05:02:39;;;;;;;4.32;1.90;;;;;;;-140.81;100.00;62400.31;4999845;28;20046;-60
2024/03/11 05:05:09;;;;;;;7.13;2.33;;;;;;;-140.81;100.00;62400.31;5039659;28;20632;-63
2024/03/11 05:07:38;;;;;;;3.78;2.60;;;;;;;-140.81;100.00;62400.31;5036802;28;20493;-63
2024/03/11 05:10:05;;;;;;;6.70;2.65;;;;;;;-140.81;100.00;62400.31;5006936;28;20809;-61
2024/03/11 05:12:31;;;;;;;10.40;3.55;;;;;;;-140.81;100.00;62400.31;5040486;28;20049;-60
2024/03/11 05:15:00;;;;;;;5.95;2.55;;;;;;;-140.81;100.00;62400.31;5007763;28;20042;-62
2024/03/11 05:17:26;;;;;;;6.85;2.88;;;;;;;-140.81;100.00;62400.31;4999054;28;20133;-63
2024/03/11 05:19:53;;;;;;;6.10;2.38;;;;;;;-140.81;100.00;62400.31;4994970;28;20030;-59
2024/03/11 05:22:19;;;;;;;12.20;2.88;;;;;;;-140.81;100.00;62400.31;5021309;28;20046;-60
2024/03/11 05:24:45;;;;;;;5.47;2.70;;;;;;;-140.81;100.00;62400.31;5005013;28;20395;-58
2024/03/11 05:27:11;;;;;;;8.30;2.83;;;;;;;-140.81;100.00;62400.31;4992187;28;20123;-61
2024/03/11 05:29:37;;;;;;;7.40;2.88;;;;;;;-140.81;100.00;62400.31;5007071;28;20033;-63
2024/03/11 05:32:04;;;;;;;5.40;2.28;;;;;;;-140.81;100.00;62400.31;5006203;28;20107;-61
2024/03/11 05:34:29;;;;;;;7.43;2.85;;;;;;;-140.81;100.00;62400.31;5007324;28;20536;-61
2024/03/11 05:36:55;;;;;;;5.43;2.60;;;;;;;-140.81;100.00;62400.31;5001965;28;20057;-62
2024/03/11 05:39:21;;;;;;;6.47;2.40;;;;;;;-140.81;100.00;62400.31;4989717;28;20044;-63
2024/03/11 05:41:47;;;;;;;5.28;2.20;;;;;;;-140.81;100.00;62400.31;5000006;28;20777;-65
2024/03/11 05:44:15;;;;;;;5.68;2.42;;;;;;;-140.81;100.00;62400.31;5040225;28;20533;-63
2024/03/11 05:46:42;;;;;;;9.48;3.08;;;;;;;-140.81;100.00;62400.31;5039925;28;20389;-64
2024/03/11 05:49:13;;;;;;;7.65;2.78;;;;;;;-140.81;100.00;62400.31;5039843;28;20052;-64
2024/03/11 05:51:42;;;;;;;5.30;2.15;;;;;;;-140.81;100.00;62400.31;5008557;28;20116;-63
2024/03/11 05:54:17;;;;;;;3.83;1.77;;;;;;;-140.81;100.00;62400.31;5024141;28;20104;-62
2024/03/11 05:56:53;;;;;;;5.88;2.33;;;;;;;-140.81;100.00;62400.31;5008227;28;20053;-64
2024/03/11 05:59:22;;;;;;;4.97;2.70;;;;;;;-140.81;100.00;62400.31;4992403;28;20052;-61
2024/03/11 06:01:49;;;;;;;5.63;2.75;;;;;;;-140.81;100.00;62400.31;5008528;28;20033;-64
2024/03/11 06:04:16;;;;;;;8.73;2.50;;;;;;;-140.81;100.00;62400.31;5005477;28;20069;-61
2024/03/11 06:06:46;;;;;;;14.65;2.72;;;;;;;-140.81;100.00;62400.31;5007067;28;20049;-60
2024/03/11 06:09:16;;;;;;;4.75;2.45;;;;;;;-140.81;100.00;62400.31;5007807;28;20037;-64
2024/03/11 06:11:47;;;;;;;7.05;2.50;;;;;;;-140.81;100.00;62400.31;5007076;28;20068;-63
2024/03/11 06:14:13;;;;;;;6.53;2.22;;;;;;;-140.81;100.00;62400.31;4987022;28;20434;-63
2024/03/11 06:16:39;;;;;;;4.40;2.33;;;;;;;-140.81;100.00;62400.31;4998749;28;20046;-62
2024/03/11 06:19:08;;;;;;;4.22;2.03;;;;;;;-140.81;100.00;62400.31;4972977;28;20077;-63
2024/03/11 06:21:35;;;;;;;5.50;2.58;;;;;;;-140.81;100.00;62400.31;5011470;28;20119;-63
2024/03/11 06:24:01;;;;;;;4.28;2.00;;;;;;;-140.81;100.00;62400.31;4985860;28;20038;-64
2024/03/11 06:26:28;;;;;;;3.63;1.90;;;;;;;-140.81;100.00;62400.31;5006589;28;20815;-63
2024/03/11 06:28:56;;;;;;;6.10;1.95;;;;;;;-140.81;100.00;62400.31;4983758;28;20042;-60
2024/03/11 06:31:24;;;;;;;6.18;2.63;;;;;;;-140.81;100.00;62400.31;5004779;28;20057;-62
2024/03/11 06:33:50;;;;;;;5.68;2.60;;;;;;;-140.81;100.00;62400.31;4994121;28;20132;-60
2024/03/11 06:36:17;;;;;;;7.35;2.40;;;;;;;-140.81;100.00;62400.31;5004405;28;20149;-62
2024/03/11 06:38:44;;;;;;;6.20;2.97;;;;;;;-140.81;100.00;62400.31;5007778;28;20061;-60
2024/03/11 06:41:11;;;;;;;6.15;2.45;;;;;;;-140.81;100.00;62400.31;4985385;28;20042;-60
2024/03/11 06:43:38;;;;;;;7.30;2.53;;;;;;;-140.81;100.00;62400.31;5000713;28;20084;-64
2024/03/11 06:46:04;;;;;;;6.95;2.17;;;;;;;-140.81;100.00;62400.31;5003434;28;20084;-58
2024/03/11 06:48:30;;;;;;;5.45;2.10;;;;;;;-140.81;100.00;62400.31;5005252;28;20042;-62
2024/03/11 06:50:56;;;;;;;5.88;2.88;;;;;;;-140.81;100.00;62400.31;4981774;28;20042;-62
2024/03/11 06:53:25;;;;;;;7.80;2.17;;;;;;;-140.81;100.00;62400.31;4989658;28;20042;-62
2024/03/11 06:55:51;;;;;;;5.82;2.65;;;;;;;-140.81;100.00;62400.31;5007460;28;20038;-62
2024/03/11 06:58:18;;;;;;;8.60;3.22;;;;;;;-140.81;100.00;62400.31;5007682;28;20541;-58
2024/03/11 07:00:44;;;;;;;7.15;2.60;;;;;;;-140.81;100.00;62400.31;5004561;28;20061;-62
2024/03/11 07:03:10;;;;;;;6.10;2.80;;;;;;;-140.81;100.00;62400.31;5006884;28;20038;-63
2024/03/11 07:05:36;;;;;;;9.70;3.10;;;;;;;-140.81;100.00;62400.31;5006808;28;20050;-61
2024/03/11 07:08:06;;;;;;;8.57;2.60;;;;;;;-140.81;100.00;62400.31;5022760;28;20052;-62
2024/03/11 07:10:32;;;;;;;6.82;2.90;;;;;;;-140.81;100.00;62400.31;5007674;28;20464;-62
2024/03/11 07:12:58;;;;;;;4.60;2.03;;;;;;;-140.81;100.00;62400.31;5006969;28;20052;-61
2024/03/11 07:15:25;;;;;;;13.48;3.50;;;;;;;-140.81;100.00;62400.31;5007174;28;20050;-63
2024/03/11 07:17:51;;;;;;;5.88;2.70;;;;;;;-140.81;100.00;62400.31;5021978;28;20073;-61
2024/03/11 07:20:17;;;;;;;6.72;2.25;;;;;;;-140.81;100.00;62400.31;5018054;28;20502;-66
2024/03/11 07:22:45;;;;;;;6.85;2.17;;;;;;;-140.81;100.00;62400.31;4999419;28;20042;-64
2024/03/11 07:25:11;;;;;;;4.75;2.00;;;;;;;-140.81;100.00;62400.31;5004976;28;20544;-62
2024/03/11 07:27:38;;;;;;;9.10;3.13;;;;;;;-140.81;100.00;62400.31;4956839;28;20137;-57
2024/03/11 07:30:08;;;;;;;10.55;3.20;;;;;;;-140.81;100.00;62400.31;5002594;28;20518;-60
2024/03/11 07:32:34;;;;;;;2.70;1.75;;;;;;;-140.81;100.00;62400.31;4997198;28;20518;-60
2024/03/11 07:35:01;;;;;;;6.20;2.95;;;;;;;-140.81;100.00;62400.31;5038153;28;20157;-62
2024/03/11 07:37:27;;;;;;;5.85;3.25;;;;;;;-140.81;100.00;62400.31;5038513;28;20433;-66
2024/03/11 07:39:53;;;;;;;10.02;2.40;;;;;;;-140.81;100.00;62400.31;5007157;28;20120;-64
2024/03/11 07:42:22;;;;;;;7.05;3.10;;;;;;;-140.81;100.00;62400.31;5006466;28;20656;-64
2024/03/11 07:44:51;;;;;;;8.10;2.47;;;;;;;-140.81;100.00;62400.31;4998968;28;20046;-64
2024/03/11 07:47:18;;;;;;;9.38;3.10;;;;;;;-140.81;100.00;62400.31;4987534;28;20546;-64
2024/03/11 07:49:43;;;;;;;10.18;2.97;;;;;;;-140.81;100.00;62400.31;4993476;28;20080;-65
2024/03/11 07:52:12;;;;;;;5.72;2.92;;;;;;;-140.81;100.00;62400.31;5006316;28;20187;-63
2024/03/11 07:54:39;;;;;;;;;;;;;;;-140.81;100.00;62400.31;5005317;28;20041;-63
2024/03/11 07:57:06;;;;;;;11.82;4.50;;;;;;;-140.81;100.00;62400.31;5005013;28;19917;-62
2024/03/11 07:59:33;;;;;;;7.75;3.15;;;;;;;-140.81;100.00;62400.31;5006653;28;20042;-61
2024/03/11 08:01:59;;;;;;;7.72;2.80;;;;;;;-140.81;100.00;62400.31;5006814;28;20052;-60
2024/03/11 08:04:24;;;;;;;6.43;2.60;;;;;;;-140.81;100.00;62400.31;4986299;28;20038;-62
2024/03/11 08:06:52;;;;;;;4.60;2.55;;;;;;;-140.81;100.00;62400.31;5005472;28;20049;-61
2024/03/11 08:09:18;;;;;;;4.55;2.78;;;;;;;-140.81;100.00;62400.31;5006630;28;20084;-61
2024/03/11 08:11:44;;;;;;;9.05;3.15;;;;;;;-140.81;100.00;62400.31;5006893;28;20128;-60
2024/03/11 08:14:10;;;;;;;3.63;2.60;;;;;;;-140.81;100.00;62400.31;5001636;28;20645;-58
2024/03/11 08:16:38;;;;;;;9.80;3.22;;;;;;;-140.81;100.00;62400.31;5018181;28;20104;-62
2024/03/11 08:19:05;;;;;;;8.98;2.85;;;;;;;-140.81;100.00;62400.31;4981771;28;20759;-61
2024/03/11 08:21:31;;;;;;;9.93;2.97;;;;;;;-140.81;100.00;62400.31;5000371;28;20045;-54
2024/03/11 08:23:57;;;;;;;9.23;3.00;;;;;;;-140.81;100.00;62400.31;5005457;28;20048;-62
2024/03/11 08:26:24;;;;;;;5.65;2.55;;;;;;;-140.81;100.00;62400.31;4992025;28;20120;-63
2024/03/11 08:28:51;;;;;;;9.00;3.45;;;;;;;-140.81;100.00;62400.31;5030828;28;20053;-62
2024/03/11 08:31:17;;;;;;;7.28;2.95;;;;;;;-140.81;100.00;62400.31;5034319;28;20133;-62
2024/03/11 08:33:43;;;;;;;5.93;2.30;;;;;;;-140.81;100.00;62400.31;5005384;28;20528;-64
2024/03/11 08:36:09;;;;;;;4.07;2.15;;;;;;;-140.81;100.00;62400.31;5001060;28;20052;-63
2024/03/11 08:38:35;;;;;;;6.40;2.60;;;;;;;-140.81;100.00;62400.31;5004733;28;20434;-62
2024/03/11 08:41:06;;;;;;;5.45;2.13;;;;;;;-140.81;100.00;62400.31;4997091;28;20102;-62
2024/03/11 08:43:32;;;;;;;5.47;2.20;;;;;;;-140.81;100.00;62400.31;5004791;28;20042;-62
2024/03/11 08:45:58;;;;;;;4.60;2.38;;;;;;;-140.81;100.00;62400.31;4999950;28;20096;-61
2024/03/11 08:48:26;;;;;;;4.50;1.67;;;;;;;-140.81;100.00;62400.31;5001786;28;20042;-61
2024/03/11 08:50:53;;;;;;;3.80;2.00;;;;;;;-140.81;100.00;62400.31;4987739;28;20042;-67
2024/03/11 08:53:19;;;;;;;5.80;2.35;;;;;;;-140.81;100.00;62400.31;5037526;28;20049;-64
2024/03/11 08:55:45;;;;;;;5.90;2.97;;;;;;;-140.81;100.00;62400.31;5004644;28;20460;-63
2024/03/11 08:58:12;;;;;;;5.93;2.47;;;;;;;-140.81;100.00;62400.31;5002869;28;20125;-62
2024/03/11 09:00:39;;;;;;;4.40;2.40;;;;;;;-140.81;100.00;62400.31;5004559;28;20069;-61
2024/03/11 09:03:05;;;;;;;6.85;2.13;;;;;;;-140.81;100.00;62400.31;5004283;28;20034;-63
2024/03/11 09:05:32;;;;;;;5.63;2.88;;;;;;;-140.81;100.00;62400.31;5003337;28;20053;-63
2024/03/11 09:08:03;;;;;;;3.03;2.28;;;;;;;-140.81;100.00;62400.31;5005893;28;20037;-63
2024/03/11 09:10:30;;;;;;;4.20;2.70;;;;;;;-140.81;100.00;62400.31;5004524;28;20053;-63
2024/03/11 09:12:58;;;;;;;3.10;2.08;;;;;;;-140.81;100.00;62400.31;5004233;28;20045;-64
2024/03/11 09:15:24;;;;;;;5.00;2.70;;;;;;;-140.81;100.00;62400.31;5036652;28;20041;-69
2024/03/11 09:17:51;;;;;;;4.05;2.40;;;;;;;-140.81;100.00;62400.31;5009110;28;20046;-68
2024/03/11 09:20:19;;;;;;;3.15;2.00;;;;;;;-140.81;100.00;62400.31;5009093;28;20479;-63
2024/03/11 09:22:47;;;;;;;5.35;2.20;;;;;;;-140.81;100.00;62400.31;5008808;28;20100;-66
2024/03/11 09:25:23;;;;;;;4.03;2.13;;;;;;;-140.81;100.00;62400.31;5007278;28;20046;-65
2024/03/11 09:27:53;;;;;;;5.50;2.13;;;;;;;-140.81;100.00;62400.31;4988129;28;20056;-66
2024/03/11 09:30:19;;;;;;;4.15;2.03;;;;;;;-140.81;100.00;62400.31;5007580;28;20875;-70
2024/03/11 09:32:49;;;;;;;3.58;2.38;;;;;;;-140.81;100.00;62400.31;5041260;28;20046;-68
2024/03/11 09:35:16;;;;;;;4.30;2.40;;;;;;;-140.81;100.00;62400.31;5008437;28;20092;-67
2024/03/11 09:37:47;;;;;;;5.03;2.50;;;;;;;-140.81;100.00;62400.31;4991208;28;20603;-66
2024/03/11 09:40:19;;;;;;;3.92;2.22;;;;;;;-140.81;100.00;62400.31;5009774;28;20061;-65
2024/03/11 09:42:47;;;;;;;4.70;2.13;;;;;;;-140.81;100.00;62400.31;5023002;28;20057;-67
2024/03/11 09:45:17;;;;;;;6.00;2.60;;;;;;;-140.81;100.00;62400.31;4989991;28;20391;-66
2024/03/11 09:47:51;;;;;;;3.80;2.40;;;;;;;-140.81;100.00;62400.31;5006416;28;20046;-67
2024/03/11 09:50:23;;;;;;;6.15;2.67;;;;;;;-140.81;100.00;62400.31;5023908;28;20120;-68
2024/03/11 09:52:50;;;;;;;5.95;2.50;;;;;;;-140.81;100.00;62400.31;4991618;28;20132;-68
2024/03/11 09:55:18;;;;;;;4.57;2.08;;;;;;;-140.81;100.00;62400.31;4971487;28;20049;-67
2024/03/11 09:57:45;;;;;;;6.57;2.72;;;;;;;-140.81;100.00;62400.31;4990410;28;20088;-68
2024/03/11 10:00:14;;;;;;;3.50;2.13;;;;;;;-140.81;100.00;62400.31;4990947;28;20037;-67
2024/03/11 10:02:44;;;;;;;3.72;2.17;;;;;;;-140.81;100.00;62400.31;5008555;28;20041;-67
2024/03/11 10:05:10;;;;;;;2.92;1.70;;;;;;;-140.81;100.00;62400.31;5007253;28;20434;-67
2024/03/11 10:07:36;;;;;;;4.88;2.65;;;;;;;-140.81;100.00;62400.31;5006538;28;20225;-67
2024/03/11 10:10:12;;;;;;;4.13;2.03;;;;;;;-140.81;100.00;62400.31;5008429;28;20422;-67
2024/03/11 10:12:54;;;;;;;6.50;2.83;;;;;;;-140.81;100.00;62400.31;5007347;28;20513;-68
2024/03/11 10:15:28;;;;;;;7.30;3.05;;;;;;;-140.81;100.00;62400.31;5007455;28;20049;-67
2024/03/11 10:18:26;;;;;;;4.28;2.40;;;;;;;-140.81;100.00;62400.31;5039474;28;20046;-68
2024/03/11 10:20:58;;;;;;;2.50;1.67;;;;;;;-140.81;100.00;62400.31;4996521;28;20037;-67
2024/03/11 10:23:25;;;;;;;5.05;2.28;;;;;;;-140.81;100.00;62400.31;5006928;28;20041;-68
2024/03/11 10:26:17;;;;;;;4.03;2.00;;;;;;;-140.81;100.00;62400.31;5007137;28;20045;-68
2024/03/11 10:28:48;;;;;;;4.68;2.40;;;;;;;-140.81;100.00;62400.31;5005167;28;20092;-66
2024/03/11 10:31:21;;;;;;;4.63;2.67;;;;;;;-140.81;100.00;62400.31;5006568;28;20073;-67
2024/03/11 10:33:50;;;;;;;5.55;2.67;;;;;;;-140.81;100.00;62400.31;5006856;28;20095;-69
2024/03/11 10:36:15;;;;;;;4.57;2.80;;;;;;;-140.81;100.00;62400.31;5008240;28;20498;-68
2024/03/11 10:38:43;;;;;;;4.85;2.65;;;;;;;-140.81;100.00;62400.31;5007684;28;20305;-68
2024/03/11 10:41:22;;;;;;;7.82;2.80;;;;;;;-140.81;100.00;62400.31;5039671;28;20517;-69
2024/03/11 10:43:51;;;;;;;3.60;2.47;;;;;;;-140.81;100.00;62400.31;5007931;28;20056;-67
2024/03/11 10:46:20;;;;;;;7.20;2.30;;;;;;;-140.81;100.00;62400.31;5006496;28;20041;-67
2024/03/11 10:48:47;;;;;;;7.00;2.80;;;;;;;-140.81;100.00;62400.31;4989187;28;20041;-66
2024/03/11 10:51:19;;;;;;;4.43;2.80;;;;;;;-140.81;100.00;62400.31;5007545;28;20056;-69
2024/03/11 10:53:46;;;;;;;3.13;1.92;;;;;;;-140.81;100.00;62400.31;5005339;28;20038;-68
2024/03/11 10:56:19;;;;;;;4.03;2.45;;;;;;;-140.81;100.00;62400.31;5007545;28;20130;-67
2024/03/11 10:58:54;;;;;;;3.40;2.30;;;;;;;-140.81;100.00;62400.31;5026321;28;20600;-67
2024/03/11 11:01:40;;;;;;;3.45;2.50;;;;;;;-140.81;100.00;62400.31;5005588;28;20103;-66
2024/03/11 11:04:13;;;;;;;5.68;2.90;;;;;;;-140.81;100.00;62400.31;4986602;28;20139;-68
2024/03/11 11:06:44;;;;;;;3.45;2.22;;;;;;;-140.81;100.00;62400.31;4987765;28;20073;-67
2024/03/11 11:09:12;;;;;;;3.58;2.45;;;;;;;-140.81;100.00;62400.31;5003225;28;20121;-68
2024/03/11 11:11:51;;;;;;;5.13;2.97;;;;;;;-140.81;100.00;62400.31;5005897;28;20049;-68
2024/03/11 11:14:21;;;;;;;5.45;2.30;;;;;;;-140.81;100.00;62400.31;5036628;28;20289;-69